Time;durP1;ratioP1;P1;durP2;ratioP2;P2;SDS_P1;SDS_P2;PMS_P1;PMS_P2;Temp;Humidity;BMP_temperature;BMP_pressure;BME280_temperature;BME280_humidity;BME280_pressure;Samples;Min_cycle;Max_cycle;Signal;HPM_P1;HPM_P2
2022/01/25 00:16:07;;;;;;;5.35;3.15;;;5.10;99.90;;;;;;5111848;28;20225;-71
2022/01/25 00:26:59;;;;;;;5.38;4.55;;;5.00;99.90;;;;;;5110337;28;20718;-71
2022/01/25 00:29:34;;;;;;;4.70;4.30;;;5.00;99.90;;;;;;5122937;27;20266;-71
2022/01/25 00:32:03;;;;;;;3.70;3.40;;;5.00;99.90;;;;;;5127507;27;20217;-71
2022/01/25 00:34:32;;;;;;;5.68;5.00;;;5.00;99.90;;;;;;5125028;27;20183;-71
2022/01/25 00:37:00;;;;;;;4.93;3.75;;;5.00;99.90;;;;;;5110438;28;20233;-71
2022/01/25 00:39:28;;;;;;;3.90;3.17;;;5.00;99.90;;;;;;5131366;27;20826;-72
2022/01/25 00:41:58;;;;;;;4.65;3.85;;;5.00;99.90;;;;;;5113227;27;20267;-71
2022/01/25 00:44:30;;;;;;;4.75;4.25;;;5.00;99.90;;;;;;5098006;28;20186;-71
2022/01/25 00:47:01;;;;;;;4.90;4.38;;;5.00;99.90;;;;;;5108096;28;20221;-71
2022/01/25 00:49:29;;;;;;;6.40;5.68;;;5.00;99.90;;;;;;5110405;27;20232;-71
2022/01/25 00:52:05;;;;;;;4.50;4.07;;;5.00;99.90;;;;;;5110515;28;20222;-71
2022/01/25 00:54:40;;;;;;;5.13;4.72;;;5.00;99.90;;;;;;5114870;27;20205;-72
2022/01/25 00:57:12;;;;;;;5.10;4.25;;;5.00;99.90;;;;;;5109868;28;20246;-71
2022/01/25 00:59:40;;;;;;;5.93;4.57;;;5.00;99.90;;;;;;5110763;28;20246;-70
2022/01/25 01:02:12;;;;;;;3.90;3.50;;;5.00;99.90;;;;;;5124343;27;20603;-71
2022/01/25 01:04:42;;;;;;;4.50;3.90;;;5.00;99.90;;;;;;5110615;28;20205;-72
2022/01/25 01:07:13;;;;;;;6.53;5.10;;;5.00;99.90;;;;;;5110224;28;20276;-71
2022/01/25 01:09:44;;;;;;;6.15;4.47;;;5.00;99.90;;;;;;5125496;28;20182;-71
2022/01/25 01:12:21;;;;;;;6.07;5.40;;;5.00;99.90;;;;;;5120021;28;20218;-71
2022/01/25 01:14:59;;;;;;;4.68;4.00;;;5.00;99.90;;;;;;5126847;28;20597;-73
2022/01/25 01:28:52;;;;;;;3.60;3.28;;;4.90;99.90;;;;;;5123188;28;20328;-71
2022/01/25 01:29:17;;;;;;;4.40;3.90;;;5.00;99.90;;;;;;5098255;28;20285;-71
2022/01/25 01:31:57;;;;;;;4.10;3.65;;;4.90;99.90;;;;;;5109556;28;20247;-71
2022/01/25 01:37:40;;;;;;;5.75;5.13;;;4.90;99.90;;;;;;5096746;28;20281;-71
2022/01/25 01:40:37;;;;;;;5.18;4.68;;;5.00;99.90;;;;;;5109372;28;20213;-71
2022/01/25 01:43:16;;;;;;;5.60;4.20;;;4.90;99.90;;;;;;5110013;28;20698;-70
2022/01/25 01:45:55;;;;;;;4.95;3.65;;;4.90;99.90;;;;;;5113117;28;20191;-71
2022/01/25 01:48:30;;;;;;;5.07;3.85;;;4.90;99.90;;;;;;5113051;27;20246;-71
2022/01/25 01:51:05;;;;;;;6.55;5.32;;;4.90;99.90;;;;;;5114064;28;20221;-71
2022/01/25 01:53:33;;;;;;;4.95;4.45;;;4.90;99.90;;;;;;5114671;27;20194;-71
2022/01/25 01:56:02;;;;;;;4.80;4.38;;;4.90;99.90;;;;;;5112795;28;20222;-72
2022/01/25 01:58:30;;;;;;;5.40;4.50;;;4.90;99.90;;;;;;5097050;28;20214;-71
2022/01/25 02:01:00;;;;;;;4.95;4.53;;;4.90;99.90;;;;;;5113751;28;20583;-71
2022/01/25 02:03:28;;;;;;;5.10;4.60;;;4.90;99.90;;;;;;5118252;27;20190;-71
2022/01/25 02:05:56;;;;;;;5.40;4.80;;;4.90;99.90;;;;;;5130089;27;20262;-71
2022/01/25 02:08:24;;;;;;;4.35;3.47;;;4.90;99.90;;;;;;5113969;27;20263;-72
2022/01/25 02:10:52;;;;;;;3.88;3.40;;;4.90;99.90;;;;;;5113666;28;20218;-71
2022/01/25 02:13:20;;;;;;;5.22;4.40;;;4.90;99.90;;;;;;5121485;27;20682;-72
2022/01/25 02:15:50;;;;;;;5.28;4.60;;;4.90;99.90;;;;;;5134068;27;20245;-71
2022/01/25 02:23:52;;;;;;;5.55;4.35;;;4.90;99.90;;;;;;5115855;27;20211;-72
2022/01/25 02:26:20;;;;;;;4.75;4.03;;;4.90;99.90;;;;;;5118614;27;20269;-71
2022/01/25 02:28:49;;;;;;;4.70;3.70;;;4.90;99.90;;;;;;5118336;27;20210;-71
2022/01/25 02:31:18;;;;;;;5.97;5.38;;;4.90;99.90;;;;;;5133679;27;20218;-71
2022/01/25 02:33:46;;;;;;;7.75;6.60;;;4.90;99.90;;;;;;5125365;27;20185;-71
2022/01/25 02:36:24;;;;;;;5.32;4.50;;;4.90;99.90;;;;;;5131527;27;21057;-71
2022/01/25 02:38:52;;;;;;;5.30;4.20;;;4.90;99.90;;;;;;5134145;27;20721;-72
2022/01/25 02:41:20;;;;;;;4.05;3.60;;;4.90;99.90;;;;;;5124407;27;20619;-71
2022/01/25 02:43:50;;;;;;;5.28;4.15;;;4.90;99.90;;;;;;5106916;27;20187;-71
2022/01/25 02:48:29;;;;;;;5.32;4.25;;;4.90;99.90;;;;;;5112921;27;20625;-71
2022/01/25 02:49:12;;;;;;;4.82;4.25;;;4.90;99.90;;;;;;5092745;28;20627;-71
2022/01/25 02:51:45;;;;;;;7.57;6.00;;;4.90;99.90;;;;;;5114329;27;20212;-71
2022/01/25 02:54:15;;;;;;;8.02;5.85;;;4.80;99.90;;;;;;5132659;27;20213;-71
2022/01/25 02:56:45;;;;;;;4.68;4.05;;;4.90;99.90;;;;;;5124858;27;20217;-71
2022/01/25 02:59:14;;;;;;;7.30;4.65;;;4.80;99.90;;;;;;5133468;27;20268;-71
2022/01/25 03:01:43;;;;;;;5.00;4.28;;;4.90;99.90;;;;;;5131010;27;20639;-71
2022/01/25 03:04:12;;;;;;;4.25;3.85;;;4.80;99.90;;;;;;5108511;27;20710;-71
2022/01/25 03:06:42;;;;;;;6.15;4.70;;;4.80;99.90;;;;;;5117476;27;20762;-71
2022/01/25 03:09:11;;;;;;;4.70;3.45;;;4.80;99.90;;;;;;5133129;27;20297;-71
2022/01/25 03:11:39;;;;;;;6.95;5.00;;;4.80;99.90;;;;;;5124142;27;20206;-71
2022/01/25 03:14:10;;;;;;;6.60;5.43;;;4.80;99.90;;;;;;5100223;28;20187;-71
2022/01/25 03:16:43;;;;;;;7.28;4.93;;;4.80;99.90;;;;;;5111968;27;20271;-71
2022/01/25 03:22:00;;;;;;;6.10;4.47;;;4.80;99.90;;;;;;5101826;27;20699;-73
2022/01/25 03:24:28;;;;;;;4.88;4.13;;;4.80;99.90;;;;;;5112547;28;20195;-71
2022/01/25 03:26:56;;;;;;;4.53;4.10;;;4.80;99.90;;;;;;5093301;28;20692;-73
2022/01/25 03:29:24;;;;;;;6.72;4.63;;;4.80;99.90;;;;;;5112309;28;20260;-71
2022/01/25 03:31:52;;;;;;;6.18;4.55;;;4.80;99.90;;;;;;5110894;27;20249;-71
2022/01/25 03:34:20;;;;;;;5.88;5.20;;;4.80;99.90;;;;;;5107777;28;20290;-71
2022/01/25 03:36:48;;;;;;;5.55;4.80;;;4.80;99.90;;;;;;5118941;27;20239;-71
2022/01/25 03:39:18;;;;;;;5.65;4.78;;;4.80;99.90;;;;;;5116819;27;20260;-71
2022/01/25 03:41:46;;;;;;;7.65;5.40;;;4.80;99.90;;;;;;5111531;27;20572;-71
2022/01/25 03:44:16;;;;;;;6.15;4.50;;;4.80;99.90;;;;;;5112414;28;20224;-72
2022/01/25 03:46:58;;;;;;;6.68;5.07;;;4.80;99.90;;;;;;5111144;28;20753;-71
2022/01/25 03:52:13;;;;;;;7.00;5.30;;;4.80;99.90;;;;;;5104173;27;20300;-71
2022/01/25 03:54:42;;;;;;;4.82;4.28;;;4.80;99.90;;;;;;5132582;27;20293;-72
2022/01/25 03:57:10;;;;;;;4.15;3.78;;;4.80;99.90;;;;;;5109198;27;20278;-71
2022/01/25 03:59:38;;;;;;;6.80;5.18;;;4.80;99.90;;;;;;5132499;27;20268;-70
2022/01/25 04:02:06;;;;;;;6.20;4.90;;;4.80;99.90;;;;;;5120852;27;20245;-71
2022/01/25 04:04:36;;;;;;;7.15;4.97;;;4.80;99.90;;;;;;5110401;27;20222;-71
2022/01/25 04:07:08;;;;;;;6.07;4.82;;;4.80;99.90;;;;;;5109691;27;20266;-72
2022/01/25 04:09:38;;;;;;;9.18;5.80;;;4.80;99.90;;;;;;5125149;27;20194;-72
2022/01/25 04:12:09;;;;;;;6.72;4.13;;;4.80;99.90;;;;;;5111555;27;20228;-71
2022/01/25 04:14:37;;;;;;;6.72;5.13;;;4.70;99.90;;;;;;5125776;27;20190;-71
2022/01/25 04:17:09;;;;;;;5.30;3.80;;;4.80;99.90;;;;;;5107655;28;20225;-73
2022/01/25 04:19:41;;;;;;;5.88;4.85;;;4.80;99.90;;;;;;5101386;27;20198;-71
2022/01/25 04:25:13;;;;;;;6.63;4.55;;;4.70;99.90;;;;;;5101029;27;20231;-71
2022/01/25 04:27:42;;;;;;;6.75;4.20;;;4.70;99.90;;;;;;5103047;28;20797;-71
2022/01/25 04:30:11;;;;;;;7.30;5.20;;;4.70;99.90;;;;;;5111134;28;20213;-71
2022/01/25 04:32:48;;;;;;;6.00;4.57;;;4.70;99.90;;;;;;5110336;28;20215;-71
2022/01/25 04:35:42;;;;;;;6.38;5.30;;;4.70;99.90;;;;;;5120559;27;20214;-71
2022/01/25 04:49:19;;;;;;;6.70;4.40;;;4.70;99.90;;;;;;5090811;28;20219;-71
2022/01/25 04:51:53;;;;;;;5.90;4.90;;;4.70;99.90;;;;;;5099153;28;20214;-71
2022/01/25 04:57:19;;;;;;;7.05;6.03;;;4.70;99.90;;;;;;5090426;28;20573;-71
2022/01/25 04:59:54;;;;;;;5.32;4.75;;;4.70;99.90;;;;;;5090495;28;20592;-71
2022/01/25 05:02:33;;;;;;;8.90;5.35;;;4.70;99.90;;;;;;5091848;28;20235;-71
2022/01/25 05:05:06;;;;;;;5.18;3.83;;;4.70;99.90;;;;;;5111043;28;20746;-72
2022/01/25 05:07:41;;;;;;;7.45;5.97;;;4.70;99.90;;;;;;5110139;28;20811;-71
2022/01/25 05:10:10;;;;;;;7.07;4.78;;;4.70;99.90;;;;;;5119129;28;20177;-71
2022/01/25 05:12:43;;;;;;;7.22;5.45;;;4.70;99.90;;;;;;5122881;28;20282;-71
2022/01/25 05:16:00;;;;;;;4.78;4.25;;;4.70;99.90;;;;;;5117934;28;20301;-71
2022/01/25 05:18:39;;;;;;;7.13;5.00;;;4.70;99.90;;;;;;5111795;28;20214;-71
2022/01/25 05:23:53;;;;;;;5.88;4.05;;;4.70;99.90;;;;;;5094076;28;20186;-72
2022/01/25 05:26:25;;;;;;;6.00;4.25;;;4.60;99.90;;;;;;5117089;27;20233;-72
2022/01/25 05:28:58;;;;;;;5.10;4.00;;;4.70;99.90;;;;;;5114702;28;20213;-71
2022/01/25 05:31:27;;;;;;;5.78;4.43;;;4.70;99.90;;;;;;5131702;27;20230;-71
2022/01/25 05:33:56;;;;;;;6.25;4.20;;;4.70;99.90;;;;;;5114362;28;20194;-71
2022/01/25 05:36:26;;;;;;;7.07;4.95;;;4.60;99.90;;;;;;5114413;27;20260;-72
2022/01/25 05:38:57;;;;;;;8.60;5.05;;;4.70;99.90;;;;;;5114501;28;20206;-71
2022/01/25 05:41:29;;;;;;;5.90;4.65;;;4.60;99.90;;;;;;5119213;27;20279;-71
2022/01/25 05:44:22;;;;;;;8.77;4.10;;;4.60;99.90;;;;;;5135152;27;20766;-71
2022/01/25 05:47:08;;;;;;;6.40;4.50;;;4.70;99.90;;;;;;5094836;28;20696;-71
2022/01/25 05:49:38;;;;;;;6.68;5.10;;;4.60;99.90;;;;;;5133380;27;20249;-71
2022/01/25 05:52:08;;;;;;;7.13;5.13;;;4.60;99.90;;;;;;5122217;27;20259;-71
2022/01/25 05:54:37;;;;;;;7.55;4.88;;;4.60;99.90;;;;;;5113752;28;20186;-71
2022/01/25 05:57:06;;;;;;;8.10;5.75;;;4.60;99.90;;;;;;5113836;28;20230;-71
2022/01/25 05:59:35;;;;;;;6.57;4.70;;;4.60;99.90;;;;;;5117172;27;20186;-72
2022/01/25 06:02:05;;;;;;;9.55;6.50;;;4.60;99.90;;;;;;5126939;27;20230;-71
2022/01/25 06:04:34;;;;;;;8.27;6.10;;;4.60;99.90;;;;;;5100603;27;20274;-71
2022/01/25 06:07:03;;;;;;;7.03;5.03;;;4.60;99.90;;;;;;5113534;28;20702;-71
2022/01/25 06:09:31;;;;;;;8.30;5.25;;;4.60;99.90;;;;;;5113977;28;20617;-72
2022/01/25 06:11:59;;;;;;;9.40;5.55;;;4.60;99.90;;;;;;5125260;27;20245;-71
2022/01/25 06:14:27;;;;;;;5.65;5.05;;;4.60;99.90;;;;;;5117096;27;20217;-71
2022/01/25 06:16:55;;;;;;;9.80;6.20;;;4.60;99.90;;;;;;5131023;27;20226;-72
2022/01/25 06:19:25;;;;;;;8.68;5.03;;;4.60;99.90;;;;;;5114024;27;20256;-70
2022/01/25 06:21:53;;;;;;;5.18;4.03;;;4.60;99.90;;;;;;5123031;27;20247;-70
2022/01/25 06:24:21;;;;;;;4.30;3.88;;;4.60;99.90;;;;;;5133401;27;20857;-71
2022/01/25 06:26:49;;;;;;;8.93;5.80;;;4.60;99.90;;;;;;5118745;27;20234;-71
2022/01/25 06:29:18;;;;;;;6.05;4.30;;;4.60;99.90;;;;;;5129932;27;20243;-71
2022/01/25 06:31:47;;;;;;;7.50;4.75;;;4.60;99.90;;;;;;5131855;27;20636;-71
2022/01/25 06:34:16;;;;;;;6.72;4.55;;;4.60;99.90;;;;;;5092342;28;20193;-72
2022/01/25 06:36:47;;;;;;;8.68;5.40;;;4.60;99.90;;;;;;5092665;28;20219;-71
2022/01/25 06:39:16;;;;;;;9.52;6.20;;;4.60;99.90;;;;;;5126364;27;20206;-72
2022/01/25 06:41:44;;;;;;;7.07;4.70;;;4.60;99.90;;;;;;5119625;27;20787;-71
2022/01/25 06:44:13;;;;;;;7.93;4.85;;;4.60;99.90;;;;;;5120451;27;20242;-72
2022/01/25 06:46:41;;;;;;;8.15;5.47;;;4.60;99.90;;;;;;5132451;27;20278;-71
2022/01/25 06:49:09;;;;;;;5.93;4.00;;;4.60;99.90;;;;;;5128342;27;20213;-73
2022/01/25 06:51:37;;;;;;;8.60;5.40;;;4.60;99.90;;;;;;5132517;27;20221;-71
2022/01/25 06:54:06;;;;;;;5.60;4.20;;;4.60;99.90;;;;;;5119048;27;20218;-71
2022/01/25 06:56:35;;;;;;;7.90;5.18;;;4.60;99.90;;;;;;5120439;27;20214;-72
2022/01/25 06:59:03;;;;;;;5.93;4.30;;;4.60;99.90;;;;;;5130492;27;20242;-71
2022/01/25 07:01:32;;;;;;;6.60;4.60;;;4.60;99.90;;;;;;5132208;27;20225;-71
2022/01/25 07:04:00;;;;;;;6.53;4.50;;;4.60;99.90;;;;;;5113028;27;20206;-71
2022/01/25 07:06:28;;;;;;;5.82;5.13;;;4.60;99.90;;;;;;5126652;27;20233;-71
2022/01/25 07:08:57;;;;;;;6.20;5.05;;;4.60;99.90;;;;;;5132236;27;20213;-71
2022/01/25 07:11:26;;;;;;;6.88;4.03;;;4.60;99.90;;;;;;5125385;27;20222;-72
2022/01/25 07:13:54;;;;;;;7.22;4.47;;;4.60;99.90;;;;;;5132602;27;20207;-71
2022/01/25 07:16:22;;;;;;;7.50;5.30;;;4.60;99.90;;;;;;5129790;27;20719;-72
2022/01/25 07:18:50;;;;;;;6.90;4.70;;;4.60;99.90;;;;;;5096311;27;20226;-71
2022/01/25 07:21:18;;;;;;;6.38;5.22;;;4.60;99.90;;;;;;5112482;27;20306;-71
2022/01/25 07:23:46;;;;;;;6.55;4.47;;;4.60;99.90;;;;;;5132830;27;20213;-71
2022/01/25 07:26:14;;;;;;;5.65;3.95;;;4.60;99.90;;;;;;5116838;27;20315;-71
2022/01/25 07:28:44;;;;;;;8.38;5.32;;;4.50;99.90;;;;;;5115323;27;20214;-71
2022/01/25 07:31:12;;;;;;;8.68;5.88;;;4.50;99.90;;;;;;5132341;27;20740;-71
2022/01/25 07:33:46;;;;;;;9.88;5.40;;;4.50;99.90;;;;;;5122969;27;20292;-71
2022/01/25 07:36:23;;;;;;;9.20;5.95;;;4.50;99.90;;;;;;5110286;28;20214;-72
2022/01/25 07:39:05;;;;;;;7.10;5.50;;;4.50;99.90;;;;;;5124490;27;20304;-71
2022/01/25 07:41:34;;;;;;;10.93;7.10;;;4.50;99.90;;;;;;5113778;27;20618;-70
2022/01/25 07:44:05;;;;;;;5.63;4.25;;;4.50;99.90;;;;;;5111633;27;20182;-72
2022/01/25 07:46:33;;;;;;;7.55;4.63;;;4.50;99.90;;;;;;5129930;27;20666;-71
2022/01/25 07:49:15;;;;;;;6.80;4.90;;;4.50;99.90;;;;;;5078613;27;20759;-71
2022/01/25 07:51:45;;;;;;;5.20;3.90;;;4.50;99.90;;;;;;5124045;27;20296;-72
2022/01/25 07:54:13;;;;;;;6.80;4.57;;;4.50;99.90;;;;;;5127128;27;20189;-72
2022/01/25 07:56:42;;;;;;;9.00;4.55;;;4.50;99.90;;;;;;5121862;27;20214;-71
2022/01/25 07:59:11;;;;;;;6.40;5.10;;;4.50;99.90;;;;;;5112215;27;20738;-71
2022/01/25 08:01:39;;;;;;;7.20;4.82;;;4.50;99.90;;;;;;5111353;27;20210;-72
2022/01/25 08:04:12;;;;;;;6.72;4.72;;;4.50;99.90;;;;;;5093678;27;20564;-70
2022/01/25 08:06:41;;;;;;;6.93;4.35;;;4.50;99.90;;;;;;5131683;27;20237;-71
2022/01/25 08:09:26;;;;;;;8.00;4.63;;;4.50;99.90;;;;;;5108874;27;20624;-71
2022/01/25 08:11:57;;;;;;;6.70;3.92;;;4.50;99.90;;;;;;5090912;27;20229;-71
2022/01/25 08:14:50;;;;;;;6.88;4.43;;;4.50;99.90;;;;;;5080336;27;20189;-71
2022/01/25 08:17:40;;;;;;;5.20;4.20;;;4.50;99.90;;;;;;5121762;27;20226;-71
2022/01/25 08:20:22;;;;;;;6.82;4.40;;;4.50;99.90;;;;;;5098166;27;20214;-70
2022/01/25 08:23:07;;;;;;;4.82;3.80;;;4.50;99.90;;;;;;5105925;27;20217;-71
2022/01/25 08:25:49;;;;;;;5.85;4.38;;;4.50;99.90;;;;;;5103827;27;20189;-72
2022/01/25 08:28:34;;;;;;;9.02;5.68;;;4.50;99.90;;;;;;5104137;28;20229;-71
2022/01/25 08:31:43;;;;;;;7.53;4.75;;;4.50;99.90;;;;;;5104986;28;20212;-71
2022/01/25 08:34:20;;;;;;;6.70;4.00;;;4.50;99.90;;;;;;5118669;27;20281;-71
2022/01/25 08:37:02;;;;;;;4.82;3.40;;;4.50;99.90;;;;;;5128258;27;20679;-71
2022/01/25 08:39:46;;;;;;;6.57;5.10;;;4.50;99.90;;;;;;5116790;27;20229;-70
2022/01/25 08:42:28;;;;;;;6.28;4.18;;;4.50;99.90;;;;;;5102707;28;20225;-71
2022/01/25 08:45:08;;;;;;;11.05;5.90;;;4.50;99.90;;;;;;5110298;28;20694;-71
2022/01/25 08:47:52;;;;;;;9.05;5.35;;;4.50;99.90;;;;;;5082126;28;20230;-71
2022/01/25 08:50:24;;;;;;;9.65;6.35;;;4.50;99.90;;;;;;5107202;28;20222;-72
2022/01/25 08:53:19;;;;;;;8.82;5.63;;;4.50;99.90;;;;;;5072730;28;20216;-71
2022/01/25 08:56:16;;;;;;;8.75;5.55;;;4.50;99.90;;;;;;5039062;28;20223;-72
2022/01/25 08:59:04;;;;;;;5.65;4.10;;;4.50;99.90;;;;;;4962702;28;20212;-71
2022/01/25 09:01:32;;;;;;;7.03;4.63;;;4.50;99.90;;;;;;4975090;28;20230;-71
2022/01/25 09:04:02;;;;;;;7.43;4.60;;;4.50;99.90;;;;;;4966259;28;20214;-71
2022/01/25 09:06:31;;;;;;;7.35;4.35;;;4.40;99.90;;;;;;5027270;28;20288;-71
2022/01/25 09:09:01;;;;;;;9.32;6.43;;;4.40;99.90;;;;;;5029591;28;20258;-71
2022/01/25 09:11:30;;;;;;;9.32;5.18;;;4.50;99.90;;;;;;5043336;28;20228;-72
2022/01/25 09:13:58;;;;;;;9.70;5.15;;;4.50;99.90;;;;;;5027127;28;20193;-70
2022/01/25 09:16:26;;;;;;;6.35;4.32;;;4.40;99.90;;;;;;5015498;28;20642;-71
2022/01/25 09:18:54;;;;;;;8.77;5.93;;;4.50;99.90;;;;;;5024857;28;20268;-71
2022/01/25 09:21:23;;;;;;;7.13;4.20;;;4.50;99.90;;;;;;5007525;28;20221;-71
2022/01/25 09:23:52;;;;;;;9.32;5.40;;;4.50;99.90;;;;;;5013419;28;20209;-70
2022/01/25 09:26:20;;;;;;;7.50;4.45;;;4.40;99.90;;;;;;5039927;28;20255;-72
2022/01/25 09:28:50;;;;;;;11.10;6.60;;;4.40;99.90;;;;;;5027523;28;20217;-71
2022/01/25 09:31:19;;;;;;;11.52;5.88;;;4.40;99.90;;;;;;5108422;28;20246;-71
2022/01/25 09:33:47;;;;;;;9.43;5.70;;;4.50;99.90;;;;;;5111153;28;20186;-71
2022/01/25 09:36:15;;;;;;;7.90;4.75;;;4.50;99.90;;;;;;5118471;28;20222;-72
2022/01/25 09:38:46;;;;;;;10.32;6.10;;;4.40;99.90;;;;;;5113450;28;20203;-71
2022/01/25 09:41:15;;;;;;;10.20;6.75;;;4.40;99.90;;;;;;5115083;28;20653;-71
2022/01/25 09:43:43;;;;;;;12.38;7.38;;;4.40;99.90;;;;;;5111471;28;20238;-71
2022/01/25 09:46:11;;;;;;;10.68;6.55;;;4.40;99.90;;;;;;5109868;28;20249;-71
2022/01/25 09:48:39;;;;;;;7.30;5.32;;;4.40;99.90;;;;;;5093858;28;20273;-71
2022/01/25 09:51:10;;;;;;;11.20;6.22;;;4.40;99.90;;;;;;5118620;28;20252;-72
2022/01/25 09:53:39;;;;;;;12.25;6.18;;;4.40;99.90;;;;;;5090724;28;20772;-71
2022/01/25 09:56:09;;;;;;;12.00;6.75;;;4.40;99.90;;;;;;5102045;28;20218;-71
2022/01/25 09:58:37;;;;;;;14.60;7.57;;;4.40;99.90;;;;;;5109767;28;20245;-71
2022/01/25 10:01:07;;;;;;;8.95;5.65;;;4.40;99.90;;;;;;5110027;28;20253;-71
2022/01/25 10:03:38;;;;;;;10.95;6.20;;;4.40;99.90;;;;;;5091442;28;20224;-71
2022/01/25 10:06:15;;;;;;;7.53;4.97;;;4.40;99.90;;;;;;5108699;28;20743;-71
2022/01/25 10:08:44;;;;;;;8.40;4.28;;;4.40;99.90;;;;;;5122284;27;20237;-71
2022/01/25 10:11:16;;;;;;;8.80;4.80;;;4.40;99.90;;;;;;5125743;27;20207;-71
2022/01/25 10:13:46;;;;;;;6.85;4.65;;;4.40;99.90;;;;;;5096140;27;20185;-70
2022/01/25 10:16:17;;;;;;;11.38;6.20;;;4.40;99.90;;;;;;5129711;27;20614;-72
2022/01/25 10:18:48;;;;;;;10.15;5.25;;;4.40;99.90;;;;;;5113190;28;20222;-71
2022/01/25 10:21:18;;;;;;;11.10;6.45;;;4.40;99.90;;;;;;5116340;27;20258;-71
2022/01/25 10:24:01;;;;;;;9.35;6.22;;;4.40;99.90;;;;;;5134146;27;20679;-71
2022/01/25 10:26:32;;;;;;;8.90;7.20;;;4.40;99.90;;;;;;5127101;27;20794;-71
2022/01/25 10:29:13;;;;;;;8.02;4.70;;;4.40;99.90;;;;;;5134288;27;20220;-70
2022/01/25 10:31:44;;;;;;;7.35;5.20;;;4.40;99.90;;;;;;5132855;27;20274;-71
2022/01/25 10:34:15;;;;;;;9.30;6.22;;;4.40;99.90;;;;;;5074797;28;20229;-71
2022/01/25 10:36:46;;;;;;;11.30;6.43;;;4.40;99.90;;;;;;5084812;28;20271;-71
2022/01/25 10:39:19;;;;;;;14.40;6.90;;;4.40;99.90;;;;;;5096828;28;20293;-71
2022/01/25 10:41:49;;;;;;;8.40;5.30;;;4.40;99.90;;;;;;5101167;28;20214;-71
2022/01/25 10:44:17;;;;;;;8.18;4.22;;;4.40;99.90;;;;;;5113118;28;20214;-71
2022/01/25 10:46:45;;;;;;;9.57;4.72;;;4.40;99.90;;;;;;5112594;28;20737;-71
2022/01/25 10:49:15;;;;;;;11.23;6.20;;;4.40;99.90;;;;;;5113571;28;20613;-71
2022/01/25 10:51:49;;;;;;;8.68;5.57;;;4.40;99.90;;;;;;5118337;27;20237;-71
2022/01/25 10:54:20;;;;;;;9.38;6.20;;;4.40;99.90;;;;;;5113149;28;20278;-71
2022/01/25 10:56:53;;;;;;;9.60;5.80;;;4.40;99.90;;;;;;5124576;27;20222;-71
2022/01/25 10:59:23;;;;;;;8.82;5.75;;;4.40;99.90;;;;;;5122779;27;20618;-72
2022/01/25 11:01:53;;;;;;;13.48;6.32;;;4.40;99.90;;;;;;5128874;27;20241;-71
2022/01/25 11:04:28;;;;;;;9.95;5.13;;;4.40;99.90;;;;;;5117833;27;20201;-71
2022/01/25 11:07:00;;;;;;;10.85;6.97;;;4.40;99.90;;;;;;5112450;27;20218;-70
2022/01/25 11:09:35;;;;;;;9.43;5.65;;;4.40;99.90;;;;;;5112660;28;20219;-71
2022/01/25 11:12:06;;;;;;;7.50;4.90;;;4.40;99.90;;;;;;5128121;27;20221;-71
2022/01/25 11:14:53;;;;;;;10.77;5.53;;;4.40;99.90;;;;;;5132819;27;20182;-72
2022/01/25 11:17:22;;;;;;;9.68;5.55;;;4.40;99.90;;;;;;5097172;28;20225;-71
2022/01/25 11:19:50;;;;;;;10.98;5.65;;;4.40;99.90;;;;;;5112499;28;20289;-72
2022/01/25 11:22:20;;;;;;;13.43;7.13;;;4.40;99.90;;;;;;5128872;27;20292;-71
2022/01/25 11:24:50;;;;;;;9.93;6.60;;;4.40;99.90;;;;;;5112181;28;20760;-71
2022/01/25 11:27:22;;;;;;;10.00;7.35;;;4.40;99.90;;;;;;5110227;27;20246;-71
2022/01/25 11:29:52;;;;;;;11.25;6.57;;;4.40;99.90;;;;;;5127849;27;20597;-73
2022/01/25 11:32:24;;;;;;;8.50;5.60;;;4.40;99.90;;;;;;5122821;27;20276;-71
2022/01/25 11:34:54;;;;;;;7.80;5.40;;;4.40;99.90;;;;;;5113363;27;20331;-71
2022/01/25 11:37:34;;;;;;;9.63;5.43;;;4.40;99.90;;;;;;5111568;28;20248;-71
2022/01/25 11:40:04;;;;;;;10.73;6.63;;;4.40;99.90;;;;;;5112740;27;20182;-71
2022/01/25 11:42:36;;;;;;;7.75;5.07;;;4.40;99.90;;;;;;5110386;28;20752;-71
2022/01/25 11:45:06;;;;;;;11.48;6.28;;;4.40;99.90;;;;;;5126602;27;20670;-71
2022/01/25 11:47:37;;;;;;;9.50;5.72;;;4.40;99.90;;;;;;5123804;27;20227;-71
2022/01/25 11:50:09;;;;;;;9.25;4.90;;;4.40;99.90;;;;;;5112169;28;20191;-71
2022/01/25 11:52:47;;;;;;;11.90;6.40;;;4.40;99.90;;;;;;5118742;27;20209;-71
2022/01/25 11:55:26;;;;;;;8.00;5.40;;;4.40;99.90;;;;;;5126180;27;20197;-71
2022/01/25 11:57:59;;;;;;;10.77;6.45;;;4.40;99.90;;;;;;5115573;27;20698;-72
2022/01/25 12:00:41;;;;;;;12.20;6.78;;;4.40;99.90;;;;;;5112134;28;20182;-71
2022/01/25 12:03:27;;;;;;;10.73;6.60;;;4.40;99.90;;;;;;5120561;27;20234;-71
2022/01/25 12:06:06;;;;;;;11.48;6.13;;;4.40;99.90;;;;;;5131000;27;20786;-71
2022/01/25 12:08:50;;;;;;;5.60;4.95;;;4.40;99.90;;;;;;5125359;27;20274;-71
2022/01/25 12:11:32;;;;;;;12.85;7.03;;;4.40;99.90;;;;;;5110961;27;20229;-72
2022/01/25 12:14:33;;;;;;;11.55;6.63;;;4.40;99.90;;;;;;5111469;28;20667;-71
2022/01/25 12:17:12;;;;;;;14.82;8.13;;;4.40;99.90;;;;;;5024785;28;20714;-71
2022/01/25 12:19:47;;;;;;;10.30;6.15;;;4.40;99.90;;;;;;5098728;28;20200;-71
2022/01/25 12:22:36;;;;;;;13.75;7.72;;;4.40;99.90;;;;;;5117422;27;20590;-72
2022/01/25 12:25:11;;;;;;;11.70;7.35;;;4.40;99.90;;;;;;5112442;27;20656;-71
2022/01/25 12:27:49;;;;;;;12.32;8.40;;;4.40;99.90;;;;;;5099532;28;20230;-71
2022/01/25 12:30:31;;;;;;;11.52;7.53;;;4.40;99.90;;;;;;5111400;28;20214;-72
2022/01/25 12:33:02;;;;;;;11.50;6.53;;;4.40;99.90;;;;;;5108626;27;20218;-70
2022/01/25 12:35:54;;;;;;;10.13;6.45;;;4.40;99.90;;;;;;5092469;27;20191;-71
2022/01/25 12:38:24;;;;;;;11.15;7.20;;;4.40;99.90;;;;;;5109494;27;20715;-72
2022/01/25 12:41:01;;;;;;;11.98;7.00;;;4.40;99.90;;;;;;5120966;27;20246;-71
2022/01/25 12:43:34;;;;;;;10.20;7.38;;;4.40;99.90;;;;;;5118269;27;20247;-71
2022/01/25 12:46:07;;;;;;;9.43;5.47;;;4.40;99.90;;;;;;5117129;27;20226;-71
2022/01/25 12:48:39;;;;;;;8.77;6.05;;;4.40;99.90;;;;;;5095221;28;20225;-71
2022/01/25 12:51:10;;;;;;;6.43;4.68;;;4.40;99.90;;;;;;5102905;28;20206;-71
2022/01/25 12:53:41;;;;;;;11.82;6.50;;;4.40;99.90;;;;;;5111169;28;20618;-72
2022/01/25 12:56:14;;;;;;;7.28;5.13;;;4.40;99.90;;;;;;5109819;28;20771;-73
2022/01/25 12:58:44;;;;;;;13.85;8.45;;;4.40;99.90;;;;;;5092695;28;20298;-71
2022/01/25 13:01:16;;;;;;;26.95;15.30;;;4.40;99.90;;;;;;5115995;27;20329;-71
2022/01/25 13:03:46;;;;;;;31.38;15.23;;;4.40;99.90;;;;;;5108460;27;20221;-71
2022/01/25 13:06:17;;;;;;;25.23;15.07;;;4.40;99.90;;;;;;5090463;28;20231;-72
2022/01/25 13:08:53;;;;;;;24.02;15.48;;;4.40;99.90;;;;;;5090586;28;20245;-72
2022/01/25 13:11:40;;;;;;;25.30;13.10;;;4.40;99.90;;;;;;5085358;28;20221;-71
2022/01/25 13:14:32;;;;;;;26.88;13.35;;;4.40;99.90;;;;;;5110725;28;20190;-71
2022/01/25 13:17:05;;;;;;;26.92;15.32;;;4.40;99.90;;;;;;5110079;28;20218;-72
2022/01/25 13:19:37;;;;;;;21.23;12.73;;;4.40;99.90;;;;;;5110673;28;20191;-71
2022/01/25 13:22:10;;;;;;;25.13;13.57;;;4.40;99.90;;;;;;5110584;27;20222;-71
2022/01/25 13:24:46;;;;;;;27.05;13.82;;;4.40;99.90;;;;;;5110689;28;20297;-72
2022/01/25 13:27:17;;;;;;;23.25;12.45;;;4.40;99.90;;;;;;5098862;28;20756;-71
2022/01/25 13:32:42;;;;;;;24.20;11.60;;;4.40;99.90;;;;;;5109643;28;20751;-71
2022/01/25 13:35:20;;;;;;;19.33;11.82;;;4.40;99.90;;;;;;5110381;28;20726;-71
2022/01/25 13:38:04;;;;;;;17.35;11.48;;;4.40;99.90;;;;;;5109935;28;20328;-71
2022/01/25 13:40:44;;;;;;;24.08;10.98;;;4.40;99.90;;;;;;5110972;28;20183;-70
2022/01/25 13:43:32;;;;;;;21.63;10.95;;;4.40;99.90;;;;;;5116286;27;20248;-71
2022/01/25 13:46:04;;;;;;;27.23;17.98;;;4.40;99.90;;;;;;5134285;27;21071;-71
2022/01/25 13:48:35;;;;;;;24.27;15.95;;;4.40;99.90;;;;;;5103334;27;20207;-71
2022/01/25 13:51:07;;;;;;;26.65;14.45;;;4.40;99.90;;;;;;5093805;28;20662;-72
2022/01/25 13:53:35;;;;;;;23.17;16.48;;;4.40;99.90;;;;;;5094157;28;20203;-71
2022/01/25 13:56:06;;;;;;;23.35;15.27;;;4.40;99.90;;;;;;5107575;27;20670;-72
2022/01/25 13:58:36;;;;;;;19.35;12.88;;;4.40;99.90;;;;;;5096313;28;20629;-72
2022/01/25 14:01:07;;;;;;;20.80;15.65;;;4.40;99.90;;;;;;5113792;28;20226;-71
2022/01/25 14:03:39;;;;;;;20.88;15.40;;;4.40;99.90;;;;;;5098348;28;20221;-71
2022/01/25 14:06:21;;;;;;;18.50;12.60;;;4.40;99.90;;;;;;5093177;28;20254;-72
2022/01/25 14:08:50;;;;;;;24.33;14.90;;;4.40;99.90;;;;;;5093680;28;20207;-73
2022/01/25 14:11:25;;;;;;;28.38;14.43;;;4.40;99.90;;;;;;5105295;28;20223;-72
2022/01/25 14:25:06;;;;;;;19.67;13.20;;;4.40;99.90;;;;;;5085563;28;20215;-71
2022/01/25 14:27:45;;;;;;;18.25;11.88;;;4.40;99.90;;;;;;5113244;28;20230;-71
2022/01/25 14:30:17;;;;;;;21.13;12.57;;;4.40;99.90;;;;;;5114047;28;20231;-72
2022/01/25 14:32:56;;;;;;;18.55;13.38;;;4.40;99.90;;;;;;5112746;28;20222;-71
2022/01/25 14:35:25;;;;;;;20.60;12.10;;;4.40;99.90;;;;;;5114053;28;20190;-71
2022/01/25 14:38:00;;;;;;;16.42;11.57;;;4.40;99.90;;;;;;5113036;28;20229;-72
2022/01/25 14:40:28;;;;;;;16.10;11.48;;;4.40;99.90;;;;;;5113886;28;20243;-71
2022/01/25 14:42:56;;;;;;;17.75;11.40;;;4.40;99.90;;;;;;5113879;28;20226;-72